Aviation Digital Data Service (ADDS)

Output produced by METARs form (1855 UTC 02 September 2015)
found at http://www.aviationweather.gov/adds/metars/
 
KALB 021726Z 0218/0318 30005KT P6SM SCT040 
     FM030000 VRB03KT P6SM SKC 
     FM030800 00000KT 3SM BR FEW005 
     FM031300 34005KT P6SM SCT050